createdAt,value
2018-01-28T00:00:53.602Z,7.05
2018-01-28T00:01:53.594Z,7.04
2018-01-28T00:02:53.584Z,6.91
2018-01-28T00:03:53.577Z,6.91
2018-01-28T00:04:53.567Z,6.93
2018-01-28T00:05:53.559Z,6.96
2018-01-28T00:06:53.554Z,6.81
2018-01-28T00:07:53.545Z,6.86
2018-01-28T00:08:53.529Z,6.86
2018-01-28T00:09:53.518Z,6.78
2018-01-28T00:10:53.513Z,6.72
2018-01-28T00:11:53.551Z,6.81
2018-01-28T00:12:53.492Z,6.72
2018-01-28T00:13:53.483Z,6.72
2018-01-28T00:14:53.474Z,6.76
2018-01-28T00:15:53.470Z,6.75
2018-01-28T00:16:53.460Z,6.69
2018-01-28T00:17:53.452Z,6.72
2018-01-28T00:18:53.443Z,6.57
2018-01-28T00:19:53.433Z,6.58
2018-01-28T00:20:53.428Z,6.73
2018-01-28T00:21:53.415Z,6.72
2018-01-28T00:22:53.406Z,6.72
2018-01-28T00:23:53.394Z,6.72
2018-01-28T00:24:53.386Z,6.78
2018-01-28T00:25:53.376Z,6.72
2018-01-28T00:26:53.366Z,6.72
2018-01-28T00:27:53.358Z,6.60
2018-01-28T00:28:53.349Z,6.55
2018-01-28T00:29:53.340Z,6.72
2018-01-28T00:30:53.331Z,6.73
2018-01-28T00:31:53.326Z,6.79
2018-01-28T00:32:53.317Z,6.68
2018-01-28T00:33:53.308Z,6.60
2018-01-28T00:34:53.298Z,6.75
2018-01-28T00:35:53.290Z,6.60
2018-01-28T00:36:53.281Z,6.58
2018-01-28T00:37:53.272Z,6.55
2018-01-28T00:38:53.264Z,6.58
2018-01-28T00:39:53.249Z,6.61
2018-01-28T00:40:53.242Z,6.57
2018-01-28T00:41:53.234Z,6.60
2018-01-28T00:42:53.224Z,6.58
2018-01-28T00:43:53.220Z,6.76
2018-01-28T00:44:53.208Z,6.76
2018-01-28T00:45:53.200Z,6.75
2018-01-28T00:46:53.191Z,6.63
2018-01-28T00:47:53.180Z,6.63
2018-01-28T00:48:53.169Z,6.58
2018-01-28T00:49:53.161Z,6.65
2018-01-28T00:50:53.151Z,6.60
2018-01-28T00:51:53.143Z,6.57
2018-01-28T00:52:53.133Z,6.60
2018-01-28T00:53:53.131Z,6.61
2018-01-28T00:54:53.115Z,6.57
2018-01-28T00:55:53.110Z,6.65
2018-01-28T00:56:53.101Z,6.58
2018-01-28T00:57:53.093Z,6.57
2018-01-28T00:58:53.083Z,6.61
2018-01-28T00:59:53.075Z,6.61
2018-01-28T01:00:53.068Z,6.64
2018-01-28T01:01:53.056Z,6.60
2018-01-28T01:02:53.049Z,6.57
2018-01-28T01:03:53.034Z,6.61
2018-01-28T01:04:53.035Z,6.64
2018-01-28T01:05:53.017Z,6.60
2018-01-28T01:06:53.007Z,6.65
2018-01-28T01:07:53.000Z,6.60
2018-01-28T01:08:52.991Z,6.58
2018-01-28T01:09:52.981Z,6.61
2018-01-28T01:10:52.970Z,6.63
2018-01-28T01:11:52.966Z,6.64
2018-01-28T01:12:52.958Z,6.73
2018-01-28T01:13:52.948Z,6.68
2018-01-28T01:14:52.940Z,6.72
2018-01-28T01:15:52.931Z,6.73
2018-01-28T01:16:52.923Z,6.75
2018-01-28T01:17:52.911Z,6.69
2018-01-28T01:18:52.904Z,6.75
2018-01-28T01:19:52.891Z,6.73
2018-01-28T01:20:52.881Z,6.73
2018-01-28T01:21:52.872Z,6.75
2018-01-28T01:22:52.866Z,6.72
2018-01-28T01:23:52.855Z,6.73
2018-01-28T01:24:52.845Z,6.82
2018-01-28T01:25:52.835Z,6.81
2018-01-28T01:26:52.826Z,6.87
2018-01-28T01:27:52.826Z,6.86
2018-01-28T01:28:52.814Z,6.91
2018-01-28T01:29:52.804Z,6.99
2018-01-28T01:30:52.799Z,7.00
2018-01-28T01:31:52.786Z,6.89
2018-01-28T01:32:52.778Z,6.82
2018-01-28T01:33:52.772Z,6.94
2018-01-28T01:34:52.759Z,6.94
2018-01-28T01:35:52.746Z,6.91
2018-01-28T01:36:52.737Z,6.91
2018-01-28T01:37:52.728Z,6.94
2018-01-28T01:38:52.718Z,6.96
2018-01-28T01:39:52.709Z,6.96
2018-01-28T01:40:52.702Z,6.91
2018-01-28T01:41:52.694Z,6.91
2018-01-28T01:42:52.687Z,6.94
2018-01-28T01:43:52.678Z,6.96
2018-01-28T01:44:52.671Z,6.97
2018-01-28T01:45:52.663Z,6.93
2018-01-28T01:46:52.653Z,7.00
2018-01-28T01:47:52.641Z,6.93
2018-01-28T01:48:52.630Z,7.00
2018-01-28T01:49:52.624Z,6.99
2018-01-28T01:50:52.613Z,7.04
2018-01-28T01:51:52.616Z,7.07
2018-01-28T01:52:52.599Z,7.07
2018-01-28T01:53:52.590Z,7.07
2018-01-28T01:54:52.585Z,7.04
2018-01-28T01:55:52.573Z,7.04
2018-01-28T01:56:52.564Z,7.09
2018-01-28T01:57:52.555Z,6.99
2018-01-28T01:58:52.546Z,7.16
2018-01-28T01:59:52.534Z,7.15
2018-01-28T02:00:52.526Z,7.15
2018-01-28T02:01:52.517Z,7.15
2018-01-28T02:02:52.507Z,7.12
2018-01-28T02:03:52.500Z,7.11
2018-01-28T02:04:52.489Z,7.15
2018-01-28T02:05:52.481Z,7.18
2018-01-28T02:06:52.474Z,7.12
2018-01-28T02:07:52.468Z,7.18
2018-01-28T02:08:52.462Z,7.19
2018-01-28T02:09:52.451Z,7.21
2018-01-28T02:10:52.442Z,7.15
2018-01-28T02:11:52.433Z,7.30
2018-01-28T02:12:52.425Z,7.27
2018-01-28T02:13:52.415Z,7.29
2018-01-28T02:14:52.406Z,7.26
2018-01-28T02:15:52.395Z,7.34
2018-01-28T02:16:52.385Z,7.29
2018-01-28T02:17:52.378Z,7.33
2018-01-28T02:18:52.367Z,7.27
2018-01-28T02:19:52.359Z,7.29
2018-01-28T02:20:52.353Z,7.30
2018-01-28T02:21:52.341Z,7.41
2018-01-28T02:22:52.334Z,7.48
2018-01-28T02:23:52.332Z,7.47
2018-01-28T02:24:52.324Z,7.57
2018-01-28T02:25:52.315Z,7.51
2018-01-28T02:26:52.312Z,7.47
2018-01-28T02:27:52.296Z,7.60
2018-01-28T02:28:52.287Z,7.52
2018-01-28T02:29:52.279Z,7.47
2018-01-28T02:30:52.268Z,7.63
2018-01-28T02:31:52.257Z,7.62
2018-01-28T02:32:52.250Z,7.55
2018-01-28T02:33:52.239Z,7.48
2018-01-28T02:34:52.231Z,7.45
2018-01-28T02:35:52.227Z,7.60
2018-01-28T02:36:52.215Z,7.55
2018-01-28T02:37:52.205Z,7.48
2018-01-28T02:38:52.196Z,7.45
2018-01-28T02:39:52.193Z,7.48
2018-01-28T02:40:52.185Z,7.47
2018-01-28T02:41:52.174Z,7.48
2018-01-28T02:42:52.232Z,7.41
2018-01-28T02:43:52.158Z,7.44
2018-01-28T02:44:52.150Z,7.45
2018-01-28T02:45:52.142Z,7.47
2018-01-28T02:46:52.134Z,7.47
2018-01-28T02:47:52.123Z,7.48
2018-01-28T02:48:52.112Z,7.45
2018-01-28T02:49:52.105Z,7.42
2018-01-28T02:50:52.096Z,7.37
2018-01-28T02:51:52.092Z,7.45
2018-01-28T02:52:52.083Z,7.47
2018-01-28T02:53:52.073Z,7.42
2018-01-28T02:54:52.066Z,7.44
2018-01-28T02:55:52.054Z,7.47
2018-01-28T02:56:52.046Z,7.51
2018-01-28T02:57:52.036Z,7.45
2018-01-28T02:58:52.027Z,7.42
2018-01-28T02:59:52.019Z,7.44
2018-01-28T03:00:52.011Z,7.39
2018-01-28T03:01:52.005Z,7.47
2018-01-28T03:02:51.994Z,7.39
2018-01-28T03:03:51.993Z,7.27
2018-01-28T03:04:51.986Z,7.44
2018-01-28T03:05:51.973Z,7.42
2018-01-28T03:06:51.965Z,7.45
2018-01-28T03:07:51.957Z,7.45
2018-01-28T03:08:51.948Z,7.45
2018-01-28T03:09:51.938Z,7.47
2018-01-28T03:10:51.935Z,7.45
2018-01-28T03:11:51.919Z,7.52
2018-01-28T03:12:51.910Z,7.47
2018-01-28T03:13:51.901Z,7.48
2018-01-28T03:14:51.894Z,7.60
2018-01-28T03:15:51.885Z,7.58
2018-01-28T03:16:51.876Z,7.69
2018-01-28T03:17:51.866Z,7.60
2018-01-28T03:18:51.859Z,7.63
2018-01-28T03:19:51.856Z,7.58
2018-01-28T03:20:51.849Z,7.63
2018-01-28T03:21:51.843Z,7.62
2018-01-28T03:22:51.830Z,7.63
2018-01-28T03:23:51.821Z,7.69
2018-01-28T03:24:51.820Z,7.60
2018-01-28T03:25:51.803Z,7.60
2018-01-28T03:26:51.797Z,7.62
2018-01-28T03:27:51.783Z,7.66
2018-01-28T03:28:51.776Z,7.69
2018-01-28T03:29:51.766Z,7.66
2018-01-28T03:30:51.761Z,7.66
2018-01-28T03:31:51.750Z,7.66
2018-01-28T03:32:51.742Z,7.57
2018-01-28T03:33:51.733Z,7.66
2018-01-28T03:34:51.726Z,7.70
2018-01-28T03:35:51.720Z,7.57
2018-01-28T03:36:51.713Z,7.60
2018-01-28T03:37:51.707Z,7.57
2018-01-28T03:38:51.696Z,7.69
2018-01-28T03:39:51.690Z,7.66
2018-01-28T03:40:51.680Z,7.58
2018-01-28T03:41:51.671Z,7.70
2018-01-28T03:42:51.661Z,7.74
2018-01-28T03:43:51.651Z,7.69
2018-01-28T03:44:51.643Z,7.69
2018-01-28T03:45:51.632Z,7.79
2018-01-28T03:46:51.624Z,7.82
2018-01-28T03:47:51.617Z,7.70
2018-01-28T03:48:51.608Z,7.69
2018-01-28T03:49:51.599Z,7.73
2018-01-28T03:50:51.592Z,7.69
2018-01-28T03:51:51.587Z,7.71
2018-01-28T03:52:51.580Z,7.70
2018-01-28T03:53:51.571Z,7.71
2018-01-28T03:54:51.562Z,7.67
2018-01-28T03:55:51.550Z,7.66
2018-01-28T03:56:51.542Z,7.66
2018-01-28T03:57:51.534Z,7.71
2018-01-28T03:58:51.526Z,7.73
2018-01-28T03:59:51.522Z,7.70
2018-01-28T04:00:51.514Z,7.71
2018-01-28T04:01:51.504Z,7.71
2018-01-28T04:02:51.497Z,7.71
2018-01-28T04:03:51.489Z,7.81
2018-01-28T04:04:51.482Z,7.74
2018-01-28T04:05:51.472Z,7.76
2018-01-28T04:06:51.464Z,7.70
2018-01-28T04:07:51.451Z,7.77
2018-01-28T04:08:51.442Z,7.85
2018-01-28T04:09:51.434Z,7.84
2018-01-28T04:10:51.425Z,7.91
2018-01-28T04:11:51.417Z,7.88
2018-01-28T04:12:51.410Z,7.85
2018-01-28T04:13:51.400Z,7.91
2018-01-28T04:14:51.393Z,7.86
2018-01-28T04:15:51.390Z,7.86
2018-01-28T04:16:51.381Z,7.88
2018-01-28T04:17:51.376Z,7.85
2018-01-28T04:18:51.365Z,7.88
2018-01-28T04:19:51.357Z,7.84
2018-01-28T04:20:51.349Z,7.79
2018-01-28T04:21:51.338Z,7.89
2018-01-28T04:22:51.332Z,7.89
2018-01-28T04:23:51.319Z,7.88
2018-01-28T04:24:51.310Z,7.84
2018-01-28T04:25:51.302Z,7.74
2018-01-28T04:26:51.296Z,7.81
2018-01-28T04:27:51.286Z,7.76
2018-01-28T04:28:51.279Z,7.77
2018-01-28T04:29:51.270Z,7.81
2018-01-28T04:30:51.262Z,7.74
2018-01-28T04:31:51.258Z,7.67
2018-01-28T04:32:51.250Z,7.79
2018-01-28T04:33:51.242Z,7.74
2018-01-28T04:34:51.232Z,7.77
2018-01-28T04:35:51.225Z,7.74
2018-01-28T04:36:51.217Z,7.76
2018-01-28T04:37:51.208Z,7.77
2018-01-28T04:38:51.200Z,7.82
2018-01-28T04:39:51.189Z,7.85
2018-01-28T04:40:51.180Z,7.82
2018-01-28T04:41:51.172Z,7.84
2018-01-28T04:42:51.164Z,7.82
2018-01-28T04:43:51.155Z,7.71
2018-01-28T04:44:51.147Z,7.82
2018-01-28T04:45:51.139Z,7.77
2018-01-28T04:46:51.130Z,7.82
2018-01-28T04:47:51.126Z,7.77
2018-01-28T04:48:51.119Z,7.74
2018-01-28T04:49:51.110Z,7.82
2018-01-28T04:50:51.101Z,7.77
2018-01-28T04:51:51.097Z,7.74
2018-01-28T04:52:51.086Z,7.71
2018-01-28T04:53:51.077Z,7.74
2018-01-28T04:54:51.068Z,7.79
2018-01-28T04:55:51.057Z,7.92
2018-01-28T04:56:51.049Z,7.92
2018-01-28T04:57:51.039Z,7.88
2018-01-28T04:58:51.032Z,7.82
2018-01-28T04:59:51.029Z,7.74
2018-01-28T05:00:51.020Z,7.79
2018-01-28T05:01:51.012Z,7.82
2018-01-28T05:02:51.004Z,7.77
2018-01-28T05:03:51.001Z,7.85
2018-01-28T05:04:50.984Z,7.88
2018-01-28T05:05:50.975Z,7.85
2018-01-28T05:06:50.966Z,7.88
2018-01-28T05:07:50.959Z,7.82
2018-01-28T05:08:50.951Z,7.88
2018-01-28T05:09:50.945Z,7.79
2018-01-28T05:10:50.934Z,7.82
2018-01-28T05:11:50.929Z,7.82
2018-01-28T05:12:50.922Z,7.71
2018-01-28T05:13:50.914Z,7.81
2018-01-28T05:14:50.910Z,7.84
2018-01-28T05:15:50.899Z,7.76
2018-01-28T05:16:50.889Z,7.76
2018-01-28T05:17:50.882Z,7.88
2018-01-28T05:18:50.873Z,7.76
2018-01-28T05:19:50.861Z,7.79
2018-01-28T05:20:50.852Z,7.89
2018-01-28T05:21:50.844Z,7.89
2018-01-28T05:22:50.835Z,7.89
2018-01-28T05:23:50.828Z,7.88
2018-01-28T05:24:50.825Z,7.88
2018-01-28T05:25:50.811Z,7.85
2018-01-28T05:26:50.845Z,7.89
2018-01-28T05:27:50.801Z,7.85
2018-01-28T05:28:50.792Z,7.86
2018-01-28T05:29:50.783Z,7.89
2018-01-28T05:30:50.775Z,7.89
2018-01-28T05:31:50.767Z,7.84
2018-01-28T05:32:50.759Z,7.85
2018-01-28T05:33:50.750Z,7.85
2018-01-28T05:34:50.742Z,7.89
2018-01-28T05:35:50.731Z,7.92
2018-01-28T05:36:50.722Z,7.86
2018-01-28T05:37:50.717Z,7.89
2018-01-28T05:38:50.706Z,7.88
2018-01-28T05:39:50.699Z,7.89
2018-01-28T05:40:50.692Z,7.88
2018-01-28T05:41:50.681Z,7.86
2018-01-28T05:42:50.674Z,7.89
2018-01-28T05:43:50.670Z,7.92
2018-01-28T05:44:50.662Z,7.96
2018-01-28T05:45:50.654Z,7.99
2018-01-28T05:46:50.646Z,7.89
2018-01-28T05:47:50.638Z,7.88
2018-01-28T05:48:50.630Z,7.92
2018-01-28T05:49:50.622Z,7.91
2018-01-28T05:50:50.614Z,7.99
2018-01-28T05:51:50.602Z,7.94
2018-01-28T05:52:50.595Z,7.99
2018-01-28T05:53:50.585Z,8.02
2018-01-28T05:54:50.578Z,8.06
2018-01-28T05:55:50.570Z,7.96
2018-01-28T05:56:50.561Z,7.99
2018-01-28T05:57:50.554Z,7.94
2018-01-28T05:58:50.547Z,8.06
2018-01-28T05:59:50.541Z,8.06
2018-01-28T06:00:50.534Z,8.03
2018-01-28T06:01:50.525Z,8.07
2018-01-28T06:02:50.518Z,8.07
2018-01-28T06:03:50.507Z,8.07
2018-01-28T06:04:50.498Z,8.18
2018-01-28T06:05:50.490Z,8.12
2018-01-28T06:06:50.480Z,8.02
2018-01-28T06:07:50.477Z,8.10
2018-01-28T06:08:50.470Z,8.06
2018-01-28T06:09:50.461Z,8.09
2018-01-28T06:10:50.458Z,8.12
2018-01-28T06:11:50.445Z,8.13
2018-01-28T06:12:50.439Z,8.13
2018-01-28T06:13:50.430Z,8.10
2018-01-28T06:14:50.423Z,8.13
2018-01-28T06:15:50.410Z,8.13
2018-01-28T06:16:50.403Z,8.14
2018-01-28T06:17:50.394Z,8.13
2018-01-28T06:18:50.386Z,8.18
2018-01-28T06:19:50.378Z,8.12
2018-01-28T06:20:50.371Z,8.21
2018-01-28T06:21:50.362Z,8.14
2018-01-28T06:22:50.353Z,8.20
2018-01-28T06:23:50.352Z,8.20
2018-01-28T06:24:50.343Z,8.17
2018-01-28T06:25:50.334Z,8.18
2018-01-28T06:26:50.326Z,8.31
2018-01-28T06:27:50.319Z,8.28
2018-01-28T06:28:50.311Z,8.18
2018-01-28T06:29:50.303Z,8.13
2018-01-28T06:30:50.295Z,8.29
2018-01-28T06:31:50.282Z,8.24
2018-01-28T06:32:50.276Z,8.29
2018-01-28T06:33:50.267Z,8.34
2018-01-28T06:34:50.259Z,8.27
2018-01-28T06:35:50.251Z,8.34
2018-01-28T06:36:50.244Z,8.34
2018-01-28T06:37:50.236Z,8.32
2018-01-28T06:38:50.228Z,8.28
2018-01-28T06:39:50.224Z,8.29
2018-01-28T06:40:50.215Z,8.24
2018-01-28T06:41:50.208Z,8.29
2018-01-28T06:42:50.201Z,8.18
2018-01-28T06:43:50.193Z,8.24
2018-01-28T06:44:50.184Z,8.28
2018-01-28T06:45:50.177Z,8.29
2018-01-28T06:46:50.169Z,8.32
2018-01-28T06:47:50.157Z,8.32
2018-01-28T06:48:50.149Z,8.25
2018-01-28T06:49:50.141Z,8.29
2018-01-28T06:50:50.134Z,8.34
2018-01-28T06:51:50.126Z,8.28
2018-01-28T06:52:50.119Z,8.31
2018-01-28T06:53:50.110Z,8.36
2018-01-28T06:54:50.101Z,8.28
2018-01-28T06:55:50.099Z,8.27
2018-01-28T06:56:50.091Z,8.32
2018-01-28T06:57:50.087Z,8.24
2018-01-28T06:58:50.076Z,8.28
2018-01-28T06:59:50.068Z,8.27
2018-01-28T07:00:50.060Z,8.25
2018-01-28T07:01:50.053Z,8.28
2018-01-28T07:02:50.045Z,8.34
2018-01-28T07:03:50.062Z,8.29
2018-01-28T07:04:50.027Z,8.37
2018-01-28T07:05:50.016Z,8.40
2018-01-28T07:06:50.010Z,8.36
2018-01-28T07:07:50.003Z,8.43
2018-01-28T07:08:49.995Z,8.37
2018-01-28T07:09:49.986Z,8.45
2018-01-28T07:10:49.980Z,8.47
2018-01-28T07:11:49.976Z,8.46
2018-01-28T07:12:49.968Z,8.46
2018-01-28T07:13:49.960Z,8.43
2018-01-28T07:14:49.955Z,8.46
2018-01-28T07:15:49.945Z,8.40
2018-01-28T07:16:49.938Z,8.47
2018-01-28T07:17:49.929Z,8.34
2018-01-28T07:18:49.923Z,8.42
2018-01-28T07:19:49.912Z,8.43
2018-01-28T07:20:49.904Z,8.42
2018-01-28T07:21:49.895Z,8.50
2018-01-28T07:22:49.887Z,8.39
2018-01-28T07:23:49.881Z,8.43
2018-01-28T07:24:49.874Z,8.40
2018-01-28T07:25:49.864Z,8.55
2018-01-28T07:26:49.857Z,8.46
2018-01-28T07:27:49.854Z,8.55
2018-01-28T07:28:49.847Z,8.45
2018-01-28T07:29:49.839Z,8.54
2018-01-28T07:30:49.831Z,8.50
2018-01-28T07:31:49.823Z,8.47
2018-01-28T07:32:49.816Z,8.49
2018-01-28T07:33:49.807Z,8.52
2018-01-28T07:34:49.802Z,8.46
2018-01-28T07:35:49.790Z,8.49
2018-01-28T07:36:49.782Z,8.52
2018-01-28T07:37:49.775Z,8.52
2018-01-28T07:38:49.765Z,8.54
2018-01-28T07:39:49.759Z,8.54
2018-01-28T07:40:49.752Z,8.55
2018-01-28T07:41:49.746Z,8.57
2018-01-28T07:42:49.736Z,8.55
2018-01-28T07:43:49.734Z,8.58
2018-01-28T07:44:49.729Z,8.58
2018-01-28T07:45:49.719Z,8.61
2018-01-28T07:46:49.710Z,8.61
2018-01-28T07:47:49.704Z,8.63
2018-01-28T07:48:49.696Z,8.61
2018-01-28T07:49:49.690Z,8.76
2018-01-28T07:50:49.683Z,8.73
2018-01-28T07:51:49.670Z,8.71
2018-01-28T07:52:49.662Z,8.71
2018-01-28T07:53:49.653Z,8.76
2018-01-28T07:54:49.648Z,8.80
2018-01-28T07:55:49.639Z,8.82
2018-01-28T07:56:49.632Z,8.78
2018-01-28T07:57:49.624Z,8.78
2018-01-28T07:58:49.617Z,8.76
2018-01-28T07:59:49.614Z,8.75
2018-01-28T08:00:49.607Z,8.70
2018-01-28T08:01:49.601Z,8.75
2018-01-28T08:02:49.591Z,8.76
2018-01-28T08:03:49.584Z,8.79
2018-01-28T08:04:49.577Z,8.71
2018-01-28T08:05:49.568Z,8.73
2018-01-28T08:06:49.560Z,8.75
2018-01-28T08:07:49.549Z,8.73
2018-01-28T08:08:49.543Z,8.80
2018-01-28T08:09:49.534Z,8.75
2018-01-28T08:10:49.528Z,8.85
2018-01-28T08:11:49.524Z,8.80
2018-01-28T08:12:49.517Z,8.89
2018-01-28T08:13:49.510Z,8.88
2018-01-28T08:14:49.502Z,8.88
2018-01-28T08:15:49.491Z,8.89
2018-01-28T08:16:49.485Z,8.86
2018-01-28T08:17:49.476Z,8.86
2018-01-28T08:18:49.468Z,8.85
2018-01-28T08:19:49.462Z,8.83
2018-01-28T08:20:49.455Z,8.83
2018-01-28T08:21:49.449Z,8.88
2018-01-28T08:22:49.440Z,8.89
2018-01-28T08:23:49.436Z,8.83
2018-01-28T08:24:49.429Z,8.83
2018-01-28T08:25:49.422Z,8.85
2018-01-28T08:26:49.416Z,8.86
2018-01-28T08:27:49.408Z,8.89
2018-01-28T08:28:49.402Z,8.86
2018-01-28T08:29:49.393Z,8.86
2018-01-28T08:30:49.386Z,8.89
2018-01-28T08:31:49.374Z,8.88
2018-01-28T08:32:49.368Z,8.83
2018-01-28T08:33:49.359Z,8.88
2018-01-28T08:34:49.352Z,8.86
2018-01-28T08:35:49.346Z,8.89
2018-01-28T08:36:49.340Z,8.89
2018-01-28T08:37:49.331Z,8.93
2018-01-28T08:38:49.324Z,8.85
2018-01-28T08:39:49.322Z,8.86
2018-01-28T08:40:49.315Z,9.00
2018-01-28T08:41:49.307Z,8.96
2018-01-28T08:42:49.301Z,9.00
2018-01-28T08:43:49.291Z,8.98
2018-01-28T08:44:49.288Z,9.06
2018-01-28T08:45:49.278Z,9.00
2018-01-28T08:46:49.271Z,9.01
2018-01-28T08:47:49.259Z,8.96
2018-01-28T08:48:49.252Z,8.97
2018-01-28T08:49:49.244Z,9.04
2018-01-28T08:50:49.237Z,9.03
2018-01-28T08:51:49.233Z,9.00
2018-01-28T08:52:49.225Z,9.04
2018-01-28T08:53:49.217Z,8.97
2018-01-28T08:54:49.209Z,9.00
2018-01-28T08:55:49.207Z,9.06
2018-01-28T08:56:49.199Z,9.10
2018-01-28T08:57:49.193Z,8.97
2018-01-28T08:58:49.186Z,8.96
2018-01-28T08:59:49.179Z,8.96
2018-01-28T09:00:49.172Z,9.00
2018-01-28T09:01:49.164Z,8.98
2018-01-28T09:02:49.157Z,9.06
2018-01-28T09:03:49.150Z,9.06
2018-01-28T09:04:49.139Z,9.04
2018-01-28T09:05:49.132Z,9.08
2018-01-28T09:06:49.125Z,9.06
2018-01-28T09:07:49.118Z,9.04
2018-01-28T09:08:49.112Z,9.08
2018-01-28T09:09:49.102Z,9.08
2018-01-28T09:10:49.097Z,9.06
2018-01-28T09:11:49.095Z,9.10
2018-01-28T09:12:49.088Z,9.08
2018-01-28T09:13:49.078Z,9.19
2018-01-28T09:14:49.073Z,9.16
2018-01-28T09:15:49.061Z,9.26
2018-01-28T09:16:49.055Z,9.24
2018-01-28T09:17:49.047Z,9.35
2018-01-28T09:18:49.040Z,9.30
2018-01-28T09:19:49.039Z,9.31
2018-01-28T09:20:49.031Z,9.35
2018-01-28T09:21:49.024Z,9.31
2018-01-28T09:22:49.019Z,9.34
2018-01-28T09:23:49.010Z,9.42
2018-01-28T09:24:49.003Z,9.41
2018-01-28T09:25:48.995Z,9.40
2018-01-28T09:26:48.993Z,9.45
2018-01-28T09:27:48.977Z,9.48
2018-01-28T09:28:48.970Z,9.41
2018-01-28T09:29:48.988Z,9.44
2018-01-28T09:30:48.957Z,9.41
2018-01-28T09:31:48.951Z,9.49
2018-01-28T09:32:48.943Z,9.44
2018-01-28T09:33:48.936Z,9.41
2018-01-28T09:34:48.929Z,9.50
2018-01-28T09:35:48.927Z,9.52
2018-01-28T09:36:48.919Z,9.49
2018-01-28T09:37:48.912Z,9.63
2018-01-28T09:38:48.905Z,9.49
2018-01-28T09:39:48.898Z,9.63
2018-01-28T09:40:48.893Z,9.59
2018-01-28T09:41:48.884Z,9.63
2018-01-28T09:42:48.879Z,9.60
2018-01-28T09:43:48.868Z,9.65
2018-01-28T09:44:48.861Z,9.68
2018-01-28T09:45:48.857Z,9.65
2018-01-28T09:46:48.848Z,9.59
2018-01-28T09:47:48.841Z,9.74
2018-01-28T09:48:48.834Z,9.70
2018-01-28T09:49:48.828Z,9.67
2018-01-28T09:50:48.821Z,9.78
2018-01-28T09:51:48.818Z,9.74
2018-01-28T09:52:48.812Z,9.78
2018-01-28T09:53:48.804Z,9.78
2018-01-28T09:54:48.798Z,9.77
2018-01-28T09:55:48.792Z,9.89
2018-01-28T09:56:48.786Z,9.89
2018-01-28T09:57:48.779Z,9.91
2018-01-28T09:58:48.778Z,9.98
2018-01-28T09:59:48.766Z,9.96
2018-01-28T10:00:48.755Z,10.04
2018-01-28T10:01:48.748Z,10.10
2018-01-28T10:02:48.740Z,10.07
2018-01-28T10:03:48.735Z,10.10
2018-01-28T10:04:48.729Z,10.10
2018-01-28T10:05:48.722Z,10.16
2018-01-28T10:06:48.715Z,10.13
2018-01-28T10:07:48.713Z,10.07
2018-01-28T10:08:48.708Z,10.17
2018-01-28T10:09:48.702Z,10.11
2018-01-28T10:10:48.694Z,10.07
2018-01-28T10:11:48.689Z,10.07
2018-01-28T10:12:48.683Z,9.98
2018-01-28T10:13:48.676Z,10.14
2018-01-28T10:14:48.670Z,10.06
2018-01-28T10:15:48.660Z,10.13
2018-01-28T10:16:48.654Z,10.13
2018-01-28T10:17:48.647Z,10.07
2018-01-28T10:18:48.642Z,10.07
2018-01-28T10:19:48.639Z,10.10
2018-01-28T10:20:48.633Z,10.07
2018-01-28T10:21:48.632Z,10.09
2018-01-28T10:22:48.620Z,10.07
2018-01-28T10:23:48.609Z,10.10
2018-01-28T10:24:48.604Z,10.13
2018-01-28T10:25:48.596Z,10.06
2018-01-28T10:26:48.591Z,10.06
2018-01-28T10:27:48.586Z,10.04
2018-01-28T10:28:48.580Z,10.11
2018-01-28T10:29:48.576Z,10.11
2018-01-28T10:30:48.567Z,10.13
2018-01-28T10:31:48.564Z,10.14
2018-01-28T10:32:48.559Z,10.22
2018-01-28T10:33:48.552Z,10.22
2018-01-28T10:34:48.546Z,10.20
2018-01-28T10:35:48.540Z,10.13
2018-01-28T10:36:48.534Z,10.13
2018-01-28T10:37:48.526Z,10.17
2018-01-28T10:38:48.521Z,10.16
2018-01-28T10:39:48.515Z,10.18
2018-01-28T10:40:48.506Z,10.13
2018-01-28T10:41:48.497Z,10.17
2018-01-28T10:42:48.493Z,10.20
2018-01-28T10:43:48.487Z,10.18
2018-01-28T10:44:48.479Z,10.31
2018-01-28T10:45:48.473Z,10.20
2018-01-28T10:46:48.469Z,10.25
2018-01-28T10:47:48.466Z,10.25
2018-01-28T10:48:48.461Z,10.22
2018-01-28T10:49:48.453Z,10.22
2018-01-28T10:50:48.448Z,10.18
2018-01-28T10:51:48.440Z,10.20
2018-01-28T10:52:48.436Z,10.26
2018-01-28T10:53:48.429Z,10.20
2018-01-28T10:54:48.424Z,10.35
2018-01-28T10:55:48.413Z,10.39
2018-01-28T10:56:48.413Z,10.31
2018-01-28T10:57:48.401Z,10.35
2018-01-28T10:58:48.397Z,10.39
2018-01-28T10:59:48.393Z,10.31
2018-01-28T11:00:48.383Z,10.35
2018-01-28T11:01:48.377Z,10.35
2018-01-28T11:02:48.370Z,10.35
2018-01-28T11:03:48.371Z,10.46
2018-01-28T11:04:48.365Z,10.36
2018-01-28T11:05:48.358Z,10.51
2018-01-28T11:06:48.353Z,10.42
2018-01-28T11:07:48.347Z,10.38
2018-01-28T11:08:48.342Z,10.24
2018-01-28T11:09:48.336Z,10.24
2018-01-28T11:10:48.330Z,10.26
2018-01-28T11:11:48.320Z,10.18
2018-01-28T11:12:48.315Z,10.31
2018-01-28T11:13:48.308Z,10.32
2018-01-28T11:14:48.305Z,10.44
2018-01-28T11:15:48.297Z,10.38
2018-01-28T11:16:48.291Z,10.43
2018-01-28T11:17:48.284Z,10.43
2018-01-28T11:18:48.278Z,10.44
2018-01-28T11:19:48.278Z,10.46
2018-01-28T11:20:48.274Z,10.55
2018-01-28T11:21:48.264Z,10.55
2018-01-28T11:22:48.261Z,10.63
2018-01-28T11:23:48.248Z,10.66
2018-01-28T11:24:48.244Z,10.70
2018-01-28T11:25:48.238Z,10.68
2018-01-28T11:26:48.234Z,10.70
2018-01-28T11:27:48.231Z,10.84
2018-01-28T11:28:48.224Z,10.72
2018-01-28T11:29:48.219Z,10.70
2018-01-28T11:30:48.215Z,10.70
2018-01-28T11:31:48.215Z,10.73
2018-01-28T11:32:48.203Z,10.70
2018-01-28T11:33:48.195Z,10.73
2018-01-28T11:34:48.191Z,10.68
2018-01-28T11:35:48.182Z,10.81
2018-01-28T11:36:48.177Z,10.81
2018-01-28T11:37:48.169Z,10.90
2018-01-28T11:38:48.165Z,10.95
2018-01-28T11:39:48.159Z,10.88
2018-01-28T11:40:48.154Z,11.06
2018-01-28T11:41:48.148Z,11.12
2018-01-28T11:42:48.141Z,11.09
2018-01-28T11:43:48.141Z,11.11
2018-01-28T11:44:48.138Z,11.13
2018-01-28T11:45:48.130Z,11.17
2018-01-28T11:46:48.125Z,11.21
2018-01-28T11:47:48.120Z,11.16
2018-01-28T11:48:48.115Z,11.06
2018-01-28T11:49:48.109Z,11.06
2018-01-28T11:50:48.104Z,11.12
2018-01-28T11:51:48.094Z,11.12
2018-01-28T11:52:48.089Z,11.09
2018-01-28T11:53:48.083Z,11.08
2018-01-28T11:54:48.079Z,11.20
2018-01-28T11:55:48.073Z,11.16
2018-01-28T11:56:48.068Z,11.12
2018-01-28T11:57:48.062Z,11.17
2018-01-28T11:58:48.057Z,11.16
2018-01-28T11:59:48.057Z,11.17
2018-01-28T12:00:48.053Z,11.17
2018-01-28T12:01:48.047Z,11.19
2018-01-28T12:02:48.042Z,11.19
2018-01-28T12:03:48.037Z,11.16
2018-01-28T12:04:48.031Z,11.26
2018-01-28T12:05:48.026Z,11.26
2018-01-28T12:06:48.022Z,11.26
2018-01-28T12:07:48.013Z,11.30
2018-01-28T12:08:48.008Z,11.26
2018-01-28T12:09:48.002Z,11.33
2018-01-28T12:10:47.998Z,11.42
2018-01-28T12:11:47.996Z,11.49
2018-01-28T12:12:47.988Z,11.54
2018-01-28T12:13:47.983Z,11.45
2018-01-28T12:14:47.977Z,11.46
2018-01-28T12:15:47.982Z,11.48
2018-01-28T12:16:47.973Z,11.59
2018-01-28T12:17:47.968Z,11.59
2018-01-28T12:18:47.963Z,11.75
2018-01-28T12:19:47.958Z,11.81
2018-01-28T12:20:47.952Z,11.79
2018-01-28T12:21:47.948Z,11.90
2018-01-28T12:22:47.943Z,11.82
2018-01-28T12:23:47.942Z,11.87
2018-01-28T12:24:47.930Z,11.87
2018-01-28T12:25:47.924Z,11.85
2018-01-28T12:26:47.920Z,11.98
2018-01-28T12:27:47.919Z,12.00
2018-01-28T12:28:47.916Z,12.11
2018-01-28T12:29:47.910Z,12.05
2018-01-28T12:30:47.906Z,12.05
2018-01-28T12:31:47.898Z,12.07
2018-01-28T12:32:47.893Z,11.98
2018-01-28T12:33:47.889Z,12.00
2018-01-28T12:34:47.885Z,11.98
2018-01-28T12:35:47.883Z,12.01
2018-01-28T12:36:47.877Z,12.11
2018-01-28T12:37:47.871Z,12.07
2018-01-28T12:38:47.868Z,12.08
2018-01-28T12:39:47.868Z,12.08
2018-01-28T12:40:47.865Z,12.01
2018-01-28T12:41:47.860Z,12.13
2018-01-28T12:42:47.859Z,11.90
2018-01-28T12:43:47.852Z,11.94
2018-01-28T12:44:47.849Z,11.93
2018-01-28T12:45:47.843Z,11.88
2018-01-28T12:46:47.840Z,11.90
2018-01-28T12:47:47.830Z,11.79
2018-01-28T12:48:47.826Z,11.88
2018-01-28T12:49:47.822Z,11.77
2018-01-28T12:50:47.818Z,11.78
2018-01-28T12:51:47.814Z,11.72
2018-01-28T12:52:47.809Z,11.70
2018-01-28T12:53:47.806Z,11.75
2018-01-28T12:54:47.800Z,11.62
2018-01-28T12:55:47.801Z,11.53
2018-01-28T12:56:47.796Z,11.59
2018-01-28T12:57:47.791Z,11.59
2018-01-28T12:58:47.787Z,11.57
2018-01-28T12:59:47.784Z,11.64
2018-01-28T13:00:47.778Z,11.57
2018-01-28T13:01:47.773Z,11.59
2018-01-28T13:02:47.770Z,11.57
2018-01-28T13:03:47.760Z,11.56
2018-01-28T13:04:47.754Z,11.59
2018-01-28T13:05:47.750Z,11.67
2018-01-28T13:06:47.744Z,11.62
2018-01-28T13:07:47.754Z,11.70
2018-01-28T13:08:47.736Z,11.78
2018-01-28T13:09:47.730Z,11.69
2018-01-28T13:10:47.726Z,11.66
2018-01-28T13:11:47.726Z,11.63
2018-01-28T13:12:47.721Z,11.63